Time;durP1;ratioP1;P1;durP2;ratioP2;P2;SDS_P1;SDS_P2;PMS_P1;PMS_P2;Temp;Humidity;BMP_temperature;BMP_pressure;BME280_temperature;BME280_humidity;BME280_pressure;Samples;Min_cycle;Max_cycle;Signal;HPM_P1;HPM_P2
2023/04/29 00:02:13;;;;;;;6.80;6.20;;;;;;;11.14;100.00;99775.31;5077250;28;20605;-75
2023/04/29 00:04:38;;;;;;;7.33;6.60;;;;;;;11.15;100.00;99771.03;5071971;28;20176;-74
2023/04/29 00:07:04;;;;;;;7.03;6.10;;;;;;;11.16;100.00;99774.41;5072048;28;20204;-76
2023/04/29 00:09:29;;;;;;;6.20;5.70;;;;;;;11.19;100.00;99771.63;5072182;28;20228;-76
2023/04/29 00:11:54;;;;;;;8.00;6.57;;;;;;;11.21;100.00;99773.22;5075616;28;20220;-77
2023/04/29 00:14:20;;;;;;;6.83;6.33;;;;;;;11.17;100.00;99773.50;5070832;28;20191;-75
2023/04/29 00:16:45;;;;;;;7.13;6.13;;;;;;;11.15;100.00;99771.03;5071618;28;20185;-75
2023/04/29 00:19:11;;;;;;;6.63;6.03;;;;;;;11.14;100.00;99765.03;5072304;28;20184;-76
2023/04/29 00:21:36;;;;;;;7.57;6.20;;;;;;;11.10;100.00;99766.16;5073787;28;20227;-76
2023/04/29 00:24:01;;;;;;;8.60;7.03;;;;;;;11.03;100.00;99766.63;5075291;28;20181;-75
2023/04/29 00:26:27;;;;;;;7.60;6.90;;;;;;;11.01;100.00;99763.31;5071405;28;20644;-75
2023/04/29 00:28:52;;;;;;;6.17;5.67;;;;;;;10.89;100.00;99763.16;5064930;28;20182;-76
2023/04/29 00:31:17;;;;;;;7.70;6.70;;;;;;;10.78;100.00;99765.56;5062908;28;20215;-78
2023/04/29 00:33:43;;;;;;;7.67;6.90;;;;;;;10.76;100.00;99763.06;5077944;28;20283;-76
2023/04/29 00:36:08;;;;;;;7.30;6.57;;;;;;;10.73;100.00;99770.13;5071097;28;20632;-76
2023/04/29 00:38:34;;;;;;;8.17;7.37;;;;;;;10.72;100.00;99776.22;5071758;28;20253;-75
2023/04/29 00:40:59;;;;;;;6.97;6.33;;;;;;;10.71;100.00;99772.00;5068879;28;20230;-77
2023/04/29 00:43:25;;;;;;;9.30;7.17;;;;;;;10.75;100.00;99770.88;5070422;28;20249;-78
2023/04/29 00:45:50;;;;;;;7.67;6.97;;;;;;;10.73;100.00;99776.13;5070948;28;20173;-78
2023/04/29 00:48:16;;;;;;;7.87;7.23;;;;;;;10.52;100.00;99782.53;5071879;28;20212;-77
2023/04/29 00:50:42;;;;;;;7.87;7.23;;;;;;;10.55;100.00;99775.47;5059027;28;20231;-78
2023/04/29 00:53:09;;;;;;;7.57;6.97;;;;;;;10.60;100.00;99782.91;5058877;28;20197;-77
2023/04/29 00:55:34;;;;;;;7.47;6.77;;;;;;;10.51;100.00;99780.91;5069593;28;20188;-77
2023/04/29 00:58:01;;;;;;;7.20;6.60;;;;;;;10.55;100.00;99779.78;5080519;28;20700;-77
2023/04/29 01:00:27;;;;;;;6.70;6.10;;;;;;;10.43;100.00;99776.19;5064047;28;20243;-76
2023/04/29 01:02:55;;;;;;;6.90;6.30;;;;;;;10.38;100.00;99784.19;5061933;28;20190;-76
2023/04/29 01:05:21;;;;;;;7.70;7.03;;;;;;;10.59;100.00;99778.69;5068630;28;20188;-76
2023/04/29 01:08:03;;;;;;;7.70;7.10;;;;;;;10.58;100.00;99789.88;5071613;28;20392;-74
2023/04/29 01:10:32;;;;;;;6.93;6.43;;;;;;;10.64;100.00;99780.06;5059535;28;20232;-76
2023/04/29 01:13:03;;;;;;;7.93;6.33;;;;;;;10.57;100.00;99776.22;5068991;28;20658;-73
2023/04/29 01:15:31;;;;;;;6.53;5.90;;;;;;;10.54;100.00;99781.53;5059004;28;20181;-76
2023/04/29 01:18:07;;;;;;;6.67;6.07;;;;;;;10.46;100.00;99788.88;5071465;28;20718;-75
2023/04/29 01:20:33;;;;;;;7.43;6.83;;;;;;;10.51;100.00;99786.06;5059776;28;20243;-73
2023/04/29 01:22:59;;;;;;;8.20;7.07;;;;;;;10.31;100.00;99782.88;5065085;28;20181;-76
2023/04/29 01:25:24;;;;;;;9.13;7.10;;;;;;;10.25;100.00;99784.03;5073723;28;20184;-76
2023/04/29 01:27:58;;;;;;;7.33;6.73;;;;;;;10.21;100.00;99784.31;5073199;28;20550;-75
2023/04/29 01:31:05;;;;;;;9.20;6.77;;;;;;;10.09;100.00;99783.28;5068039;28;20317;-75
2023/04/29 01:33:58;;;;;;;7.10;6.43;;;;;;;9.95;100.00;99786.66;5016082;28;20218;-73
2023/04/29 01:36:44;;;;;;;8.47;7.23;;;;;;;9.92;100.00;99791.94;5032407;28;20188;-75
2023/04/29 01:39:26;;;;;;;7.87;6.70;;;;;;;9.90;100.00;99791.19;5016098;28;20597;-74
2023/04/29 01:42:10;;;;;;;8.30;7.40;;;;;;;9.84;100.00;99793.22;5006064;28;20226;-74
2023/04/29 01:44:37;;;;;;;7.83;7.13;;;;;;;9.83;100.00;99798.44;5022327;28;20261;-74
2023/04/29 01:53:45;;;;;;;7.87;7.23;;;;;;;9.65;100.00;99793.41;5030119;28;20354;-75
2023/04/29 01:56:10;;;;;;;7.80;7.10;;;;;;;9.62;100.00;99803.84;5023833;28;20211;-75
2023/04/29 01:58:35;;;;;;;7.87;7.07;;;;;;;9.65;100.00;99798.56;5037654;28;20232;-75
2023/04/29 02:01:01;;;;;;;7.47;6.87;;;;;;;9.44;100.00;99798.00;5022270;28;20221;-74
2023/04/29 02:03:26;;;;;;;5.90;5.23;;;;;;;9.44;100.00;99800.56;5032229;28;20696;-75
2023/04/29 02:05:51;;;;;;;5.90;5.40;;;;;;;9.51;100.00;99798.47;5015548;28;20206;-73
2023/04/29 02:08:17;;;;;;;7.17;5.27;;;;;;;9.50;100.00;99799.38;5041211;28;20196;-73
2023/04/29 02:10:53;;;;;;;8.23;6.73;;;;;;;9.48;100.00;99807.19;5066146;28;20232;-76
2023/04/29 02:13:18;;;;;;;6.87;6.27;;;;;;;9.62;100.00;99808.97;5075402;28;20200;-74
2023/04/29 02:15:44;;;;;;;6.53;5.93;;;;;;;9.71;100.00;99807.66;5074106;28;20533;-74
2023/04/29 02:18:09;;;;;;;6.73;5.80;;;;;;;9.81;100.00;99811.38;5074223;28;20180;-75
2023/04/29 02:20:34;;;;;;;7.17;6.10;;;;;;;9.95;100.00;99812.34;5066173;28;20223;-74
2023/04/29 02:23:00;;;;;;;5.73;5.33;;;;;;;10.00;100.00;99815.47;5085504;28;20181;-74
2023/04/29 02:25:25;;;;;;;8.07;5.07;;;;;;;10.08;100.00;99815.03;5072484;28;20169;-75
2023/04/29 02:27:50;;;;;;;6.30;5.40;;;;;;;10.22;100.00;99811.66;5074157;28;20226;-74
2023/04/29 02:30:16;;;;;;;5.30;4.63;;;;;;;10.28;100.00;99807.00;5065920;28;20951;-75
2023/04/29 02:32:41;;;;;;;4.90;4.50;;;;;;;10.35;100.00;99810.03;5072931;28;20284;-74
2023/04/29 02:35:07;;;;;;;4.90;4.47;;;;;;;10.43;100.00;99815.63;5086050;28;20200;-75
2023/04/29 02:37:32;;;;;;;4.13;3.83;;;;;;;10.53;100.00;99812.47;5074264;28;20176;-73
2023/04/29 02:39:58;;;;;;;5.13;4.43;;;;;;;10.57;100.00;99816.56;5073638;28;20650;-74
2023/04/29 02:42:23;;;;;;;5.93;4.43;;;;;;;10.61;100.00;99816.25;5079357;28;20225;-72
2023/04/29 02:44:48;;;;;;;5.13;4.13;;;;;;;10.63;100.00;99819.56;5073422;28;20636;-72
2023/04/29 02:47:14;;;;;;;4.50;3.93;;;;;;;10.69;100.00;99830.41;5073979;28;20183;-73
2023/04/29 02:49:39;;;;;;;4.87;4.03;;;;;;;10.72;100.00;99830.25;5073733;28;20195;-73
2023/04/29 02:52:04;;;;;;;7.53;4.60;;;;;;;10.72;100.00;99822.53;5078705;28;20219;-73
2023/04/29 02:54:30;;;;;;;5.83;4.23;;;;;;;10.74;100.00;99818.09;5073272;28;20650;-71
2023/04/29 02:56:56;;;;;;;6.10;4.27;;;;;;;10.70;100.00;99822.59;5087084;28;20184;-73
2023/04/29 02:59:21;;;;;;;4.10;3.73;;;;;;;10.77;100.00;99833.38;5074014;28;20185;-72
2023/04/29 03:01:46;;;;;;;4.30;4.00;;;;;;;10.70;100.00;99838.03;5066267;28;20326;-73
2023/04/29 03:04:12;;;;;;;3.80;3.50;;;;;;;10.67;100.00;99833.09;5075218;28;20698;-73
2023/04/29 03:06:37;;;;;;;4.20;3.90;;;;;;;10.72;100.00;99837.97;5073052;28;20781;-73
2023/04/29 03:09:03;;;;;;;4.17;3.87;;;;;;;10.77;100.00;99829.03;5073429;28;20220;-73
2023/04/29 03:11:28;;;;;;;7.90;4.57;;;;;;;10.76;100.00;99831.72;5074329;28;20305;-72
2023/04/29 03:13:54;;;;;;;3.63;3.33;;;;;;;10.80;100.00;99839.16;5074068;28;20212;-73
2023/04/29 03:16:20;;;;;;;4.97;3.80;;;;;;;10.78;100.00;99842.75;5064544;28;20298;-74
2023/04/29 03:18:45;;;;;;;4.90;4.17;;;;;;;10.87;100.00;99847.31;5071869;28;20188;-74
2023/04/29 03:21:11;;;;;;;8.00;4.53;;;;;;;10.93;100.00;99839.25;5072013;28;20608;-73
2023/04/29 03:23:38;;;;;;;5.10;4.60;;;;;;;10.89;100.00;99842.94;5070521;28;20185;-74
2023/04/29 03:26:03;;;;;;;8.07;5.93;;;;;;;10.92;100.00;99841.91;5072379;28;20169;-73
2023/04/29 03:28:28;;;;;;;7.10;5.80;;;;;;;11.09;100.00;99840.91;5072953;28;20619;-74
2023/04/29 03:30:55;;;;;;;8.43;7.30;;;;;;;10.97;100.00;99832.97;5044452;28;20678;-73
2023/04/29 03:33:20;;;;;;;9.07;8.23;;;;;;;11.02;100.00;99832.72;5072414;28;20203;-73
2023/04/29 03:35:46;;;;;;;9.43;8.60;;;;;;;11.13;100.00;99832.06;5072431;28;20260;-73
2023/04/29 03:38:11;;;;;;;9.77;8.90;;;;;;;11.18;100.00;99834.38;5072975;28;20222;-73
2023/04/29 03:40:36;;;;;;;11.97;10.87;;;;;;;11.18;100.00;99832.59;5066673;28;20353;-73
2023/04/29 03:43:02;;;;;;;12.87;11.57;;;;;;;11.10;100.00;99833.06;5083859;28;20197;-73
2023/04/29 03:45:28;;;;;;;15.17;13.67;;;;;;;11.06;100.00;99831.59;5072160;28;20230;-73
2023/04/29 03:47:54;;;;;;;15.40;14.00;;;;;;;11.02;100.00;99837.84;5070655;28;20191;-72
2023/04/29 03:50:19;;;;;;;16.67;14.30;;;;;;;11.04;100.00;99833.44;5064178;28;20176;-72
2023/04/29 03:52:45;;;;;;;15.33;13.83;;;;;;;11.05;100.00;99834.25;5071256;28;20199;-72
2023/04/29 03:55:11;;;;;;;18.83;13.63;;;;;;;11.11;100.00;99842.47;5070533;28;20187;-73
2023/04/29 03:57:37;;;;;;;14.60;13.20;;;;;;;11.10;100.00;99843.38;5085878;28;20267;-72
2023/04/29 04:00:03;;;;;;;16.10;13.63;;;;;;;11.21;100.00;99849.59;5068271;28;20620;-72
2023/04/29 04:02:28;;;;;;;16.73;15.13;;;;;;;11.21;100.00;99858.16;5073996;28;20246;-75
2023/04/29 04:04:54;;;;;;;17.03;15.37;;;;;;;11.28;100.00;99856.84;5078748;28;20176;-73
2023/04/29 04:07:19;;;;;;;18.00;16.20;;;;;;;11.23;100.00;99860.66;5071979;28;20197;-73
2023/04/29 04:09:44;;;;;;;16.30;14.77;;;;;;;11.33;100.00;99854.00;5072645;28;20597;-74
2023/04/29 04:12:10;;;;;;;16.60;15.00;;;;;;;11.24;100.00;99860.53;5077029;28;20223;-76
2023/04/29 04:14:35;;;;;;;18.37;15.73;;;;;;;11.25;100.00;99862.19;5070670;28;20192;-75
2023/04/29 04:17:00;;;;;;;17.37;15.70;;;;;;;11.28;100.00;99864.56;5072146;28;20173;-75
2023/04/29 04:19:27;;;;;;;17.73;15.90;;;;;;;11.29;100.00;99857.69;5072250;28;20226;-76
2023/04/29 04:21:53;;;;;;;17.90;16.10;;;;;;;11.46;100.00;99865.19;5075871;28;20216;-75
2023/04/29 04:24:18;;;;;;;18.87;17.13;;;;;;;11.40;100.00;99864.75;5073202;28;20206;-75
2023/04/29 04:26:43;;;;;;;18.00;16.23;;;;;;;11.28;100.00;99866.34;5071194;28;20184;-74
2023/04/29 04:29:09;;;;;;;19.63;17.50;;;;;;;11.39;100.00;99869.06;5072213;28;20181;-73
2023/04/29 04:31:35;;;;;;;20.40;18.40;;;;;;;11.29;100.00;99873.97;5073669;28;20246;-73
2023/04/29 04:34:01;;;;;;;19.97;17.77;;;;;;;11.42;100.00;99875.78;5075181;28;20203;-74
2023/04/29 04:36:26;;;;;;;19.10;17.20;;;;;;;11.39;100.00;99870.84;5071071;28;20204;-73
2023/04/29 04:38:51;;;;;;;19.50;17.57;;;;;;;11.34;100.00;99871.13;5070637;28;20646;-73
2023/04/29 04:41:16;;;;;;;21.23;16.43;;;;;;;11.33;100.00;99886.66;5070925;28;20227;-73
2023/04/29 04:43:42;;;;;;;20.00;17.37;;;;;;;11.20;100.00;99881.41;5068686;28;20192;-74
2023/04/29 04:46:15;;;;;;;18.57;16.67;;;;;;;11.23;100.00;99888.97;5070856;28;20544;-72
2023/04/29 04:48:41;;;;;;;19.40;17.43;;;;;;;11.32;100.00;99887.56;5070479;28;20177;-73
2023/04/29 04:51:08;;;;;;;20.30;18.13;;;;;;;11.33;100.00;99889.25;5069609;28;20226;-72
2023/04/29 04:53:33;;;;;;;22.30;17.30;;;;;;;11.25;100.00;99887.09;5070289;28;20263;-72
2023/04/29 04:56:02;;;;;;;18.97;17.03;;;;;;;11.30;100.00;99895.41;5077359;28;20180;-72
2023/04/29 04:58:27;;;;;;;18.40;16.20;;;;;;;11.33;100.00;99896.97;5076422;28;20537;-72
2023/04/29 05:00:52;;;;;;;18.57;16.33;;;;;;;11.41;100.00;99895.56;5067719;28;20277;-72
2023/04/29 05:03:18;;;;;;;17.53;15.73;;;;;;;11.28;100.00;99894.66;5080188;28;20177;-72
2023/04/29 05:05:43;;;;;;;19.93;15.87;;;;;;;11.30;100.00;99900.56;5071095;28;20703;-71
2023/04/29 05:08:08;;;;;;;17.37;15.67;;;;;;;11.34;100.00;99904.59;5070798;28;20185;-71
2023/04/29 05:10:37;;;;;;;16.97;15.13;;;;;;;11.43;100.00;99908.34;5059796;28;20273;-69
2023/04/29 05:13:02;;;;;;;17.03;14.80;;;;;;;11.50;100.00;99914.78;5068025;28;20211;-70
2023/04/29 05:15:27;;;;;;;17.40;14.47;;;;;;;11.53;100.00;99911.19;5071895;28;20173;-70
2023/04/29 05:17:53;;;;;;;16.47;14.60;;;;;;;11.53;100.00;99909.44;5071281;28;20193;-69
2023/04/29 05:20:20;;;;;;;13.90;12.60;;;;;;;11.68;100.00;99915.38;5062968;28;20207;-69
2023/04/29 05:22:45;;;;;;;14.47;13.00;;;;;;;11.78;100.00;99915.63;5084495;28;20536;-69
2023/04/29 05:25:11;;;;;;;17.23;13.83;;;;;;;11.94;100.00;99913.78;5070978;28;20214;-69
2023/04/29 05:27:36;;;;;;;15.60;13.60;;;;;;;11.99;100.00;99916.06;5070070;28;20177;-69
2023/04/29 05:30:01;;;;;;;14.37;12.90;;;;;;;11.79;100.00;99915.56;5071119;28;20425;-69
2023/04/29 05:32:26;;;;;;;14.07;12.50;;;;;;;11.73;100.00;99920.25;5059670;28;20333;-69
2023/04/29 05:34:52;;;;;;;14.33;12.57;;;;;;;11.74;100.00;99925.31;5070561;28;20263;-70
2023/04/29 05:37:17;;;;;;;12.77;11.47;;;;;;;11.73;100.00;99928.84;5071185;28;20226;-71
2023/04/29 05:39:42;;;;;;;12.77;11.53;;;;;;;11.67;100.00;99930.94;5071233;28;20632;-71
2023/04/29 05:42:08;;;;;;;15.57;11.23;;;;;;;11.64;100.00;99929.38;5061468;28;20224;-70
2023/04/29 05:44:33;;;;;;;11.17;9.40;;;;;;;11.47;100.00;99940.72;5067712;28;20188;-70
2023/04/29 05:46:59;;;;;;;11.60;10.43;;;;;;;11.32;100.00;99946.81;5071338;28;20177;-70
2023/04/29 05:49:24;;;;;;;12.40;10.07;;;;;;;11.44;100.00;99954.59;5069715;28;20184;-70
2023/04/29 05:51:50;;;;;;;10.47;9.40;;;;;;;11.55;100.00;99964.28;5074962;28;20629;-71
2023/04/29 05:54:15;;;;;;;11.37;10.33;;;;;;;11.66;100.00;99963.63;5071888;28;20200;-70
2023/04/29 05:56:41;;;;;;;14.13;10.63;;;;;;;11.68;100.00;99971.25;5069215;28;20516;-71
2023/04/29 05:59:07;;;;;;;11.27;10.17;;;;;;;11.74;100.00;99973.44;5071005;28;20271;-70
2023/04/29 06:01:32;;;;;;;10.37;9.40;;;;;;;11.82;100.00;99975.53;5059253;28;20697;-71
2023/04/29 06:03:57;;;;;;;12.47;9.90;;;;;;;11.89;100.00;99980.22;5064866;28;20185;-71
2023/04/29 06:06:23;;;;;;;11.77;9.40;;;;;;;12.00;100.00;99983.94;5067840;28;20208;-72
2023/04/29 06:08:48;;;;;;;10.87;9.27;;;;;;;12.16;100.00;99983.81;5070752;28;20224;-69
2023/04/29 06:11:13;;;;;;;9.50;8.60;;;;;;;12.09;100.00;99986.78;5071977;28;20748;-71
2023/04/29 06:13:39;;;;;;;9.93;8.93;;;;;;;12.19;100.00;99986.19;5075710;28;20609;-71
2023/04/29 06:16:04;;;;;;;9.57;8.67;;;;;;;12.12;100.00;99985.75;5073213;28;20184;-72
2023/04/29 06:18:30;;;;;;;10.17;8.80;;;;;;;12.36;100.00;99990.28;5079116;28;20177;-70
2023/04/29 06:20:55;;;;;;;10.73;8.70;;;;;;;12.66;100.00;99992.59;5071308;28;20720;-73
2023/04/29 06:23:20;;;;;;;9.90;7.80;;;;;;;12.58;100.00;99995.69;5082849;28;20602;-72
2023/04/29 06:25:46;;;;;;;9.23;8.33;;;;;;;12.52;100.00;99997.84;5078252;28;20184;-71
2023/04/29 06:28:11;;;;;;;12.07;7.97;;;;;;;12.78;100.00;100003.09;5074097;28;20737;-69
2023/04/29 06:30:36;;;;;;;9.63;8.70;;;;;;;12.94;100.00;100002.88;5064861;28;20220;-72
2023/04/29 06:33:01;;;;;;;8.87;8.07;;;;;;;13.40;100.00;100010.19;5084907;28;20315;-72
2023/04/29 06:35:27;;;;;;;7.73;6.93;;;;;;;13.48;100.00;100017.41;5074781;28;20191;-58
2023/04/29 06:37:52;;;;;;;7.47;6.77;;;;;;;13.15;100.00;100016.16;5073331;28;20195;-71
2023/04/29 06:40:18;;;;;;;6.40;5.73;;;;;;;12.82;100.00;100026.00;5064054;28;20250;-72
2023/04/29 06:42:43;;;;;;;7.00;6.30;;;;;;;12.73;100.00;100030.00;5069087;28;20185;-71
2023/04/29 06:45:09;;;;;;;6.63;6.03;;;;;;;12.55;100.00;100031.19;5070123;28;20279;-70
2023/04/29 06:47:34;;;;;;;7.40;6.63;;;;;;;12.73;100.00;100030.00;5073918;28;20188;-71
2023/04/29 06:50:00;;;;;;;7.60;6.90;;;;;;;12.78;100.00;100028.91;5073626;28;20177;-71
2023/04/29 06:52:25;;;;;;;7.83;6.30;;;;;;;12.69;100.00;100038.03;5061921;28;20216;-70
2023/04/29 06:54:50;;;;;;;7.23;6.53;;;;;;;12.27;100.00;100038.91;5073302;28;20604;-70
2023/04/29 06:57:16;;;;;;;6.33;5.43;;;;;;;12.27;100.00;100038.09;5087101;28;20369;-70
2023/04/29 06:59:41;;;;;;;6.70;6.10;;;;;;;12.33;100.00;100047.19;5073753;28;20267;-71
2023/04/29 07:02:06;;;;;;;5.57;5.07;;;;;;;12.17;100.00;100042.16;5067948;28;20250;-71
2023/04/29 07:04:32;;;;;;;7.80;6.70;;;;;;;12.18;100.00;100043.81;5073199;28;20212;-70
2023/04/29 07:06:58;;;;;;;6.00;5.50;;;;;;;12.26;100.00;100042.41;5073236;28;20690;-71
2023/04/29 07:09:26;;;;;;;10.43;6.00;;;;;;;12.51;100.00;100047.78;5071939;28;20221;-71
2023/04/29 07:11:51;;;;;;;5.70;5.20;;;;;;;12.46;100.00;100053.25;5071226;28;20222;-73
2023/04/29 07:14:16;;;;;;;7.97;6.47;;;;;;;12.50;100.00;100051.28;5072070;28;20315;-70
2023/04/29 07:16:41;;;;;;;7.93;6.40;;;;;;;12.59;100.00;100055.88;5075390;28;20216;-71
2023/04/29 07:19:07;;;;;;;7.37;5.97;;;;;;;12.62;100.00;100063.41;5075780;28;20265;-68
2023/04/29 07:21:32;;;;;;;7.17;6.57;;;;;;;12.63;100.00;100067.66;5073455;28;20216;-70
2023/04/29 07:23:59;;;;;;;7.87;6.97;;;;;;;12.84;100.00;100057.72;5076481;28;20200;-70
2023/04/29 07:26:25;;;;;;;7.20;6.50;;;;;;;12.78;100.00;100067.63;5071265;28;20169;-70
2023/04/29 07:28:50;;;;;;;7.27;6.67;;;;;;;12.70;100.00;100076.66;5073076;28;20180;-70
2023/04/29 07:31:16;;;;;;;8.00;7.20;;;;;;;12.74;100.00;100077.31;5050969;28;20223;-70
2023/04/29 07:33:41;;;;;;;7.43;6.70;;;;;;;12.99;100.00;100076.53;5078714;28;20678;-70
2023/04/29 07:36:07;;;;;;;10.73;8.80;;;;;;;12.94;100.00;100072.59;5072041;28;20655;-70
2023/04/29 07:38:33;;;;;;;9.00;6.87;;;;;;;12.83;100.00;100081.88;5071568;28;20181;-70
2023/04/29 07:40:58;;;;;;;8.60;7.77;;;;;;;13.07;100.00;100087.22;5069604;28;20220;-70
2023/04/29 07:43:24;;;;;;;9.00;7.30;;;;;;;13.16;100.00;100090.09;5071519;28;20195;-70
2023/04/29 07:45:49;;;;;;;7.70;7.00;;;;;;;13.26;100.00;100095.50;5071802;28;20223;-70
2023/04/29 07:48:15;;;;;;;7.10;6.40;;;;;;;13.06;100.00;100089.88;5072584;28;20218;-70
2023/04/29 07:50:41;;;;;;;7.53;6.83;;;;;;;12.90;100.00;100097.81;5066978;28;20216;-70
2023/04/29 07:53:07;;;;;;;7.67;6.87;;;;;;;12.77;100.00;100104.66;5092803;28;20292;-70
2023/04/29 07:55:32;;;;;;;7.27;6.60;;;;;;;12.52;100.00;100108.81;5077552;28;20187;-71
2023/04/29 07:57:58;;;;;;;6.87;6.20;;;;;;;12.66;100.00;100105.34;5082726;28;20176;-71
2023/04/29 08:00:24;;;;;;;7.20;6.50;;;;;;;12.57;100.00;100115.31;5062720;28;20327;-71
2023/04/29 08:02:53;;;;;;;7.90;7.07;;;;;;;12.72;100.00;100117.88;5070936;28;20528;-71
2023/04/29 08:05:20;;;;;;;7.10;6.40;;;;;;;12.82;100.00;100120.69;5083702;28;20537;-71
2023/04/29 08:07:48;;;;;;;7.37;6.30;;;;;;;12.73;100.00;100127.25;5067689;28;20201;-71
2023/04/29 08:10:15;;;;;;;7.43;6.53;;;;;;;12.74;100.00;100127.16;5060260;28;20564;-68
2023/04/29 08:12:40;;;;;;;6.83;6.20;;;;;;;12.62;100.00;100125.34;5086068;28;20287;-70
2023/04/29 08:15:06;;;;;;;6.47;5.90;;;;;;;12.68;100.00;100126.72;5071538;28;20267;-70
2023/04/29 08:17:31;;;;;;;6.00;5.43;;;;;;;12.77;100.00;100133.06;5072067;28;20199;-70
2023/04/29 08:19:57;;;;;;;8.53;5.80;;;;;;;12.72;100.00;100130.75;5071659;28;20192;-70
2023/04/29 08:22:22;;;;;;;8.03;6.70;;;;;;;12.85;100.00;100144.56;5077392;28;20253;-69
2023/04/29 08:24:48;;;;;;;6.80;6.10;;;;;;;12.94;100.00;100147.47;5071518;28;20222;-70
2023/04/29 08:27:14;;;;;;;7.00;6.30;;;;;;;13.04;100.00;100141.63;5072182;28;20234;-70
2023/04/29 08:29:39;;;;;;;7.10;6.50;;;;;;;13.01;100.00;100139.25;5071769;28;20710;-70
2023/04/29 08:32:05;;;;;;;8.50;6.23;;;;;;;13.02;100.00;100147.81;5062648;28;20223;-70
2023/04/29 08:34:32;;;;;;;6.87;6.17;;;;;;;13.05;100.00;100145.84;5070696;28;20223;-70
2023/04/29 08:36:57;;;;;;;8.43;7.23;;;;;;;13.06;100.00;100146.69;5070504;28;20177;-69
2023/04/29 08:39:22;;;;;;;7.53;6.60;;;;;;;13.04;100.00;100146.78;5083685;28;20187;-70
2023/04/29 08:41:50;;;;;;;7.07;6.10;;;;;;;13.12;100.00;100150.63;5088580;28;20708;-72
2023/04/29 08:44:16;;;;;;;7.20;6.60;;;;;;;13.06;100.00;100149.25;5086555;28;20207;-71
2023/04/29 08:46:44;;;;;;;7.57;6.87;;;;;;;13.13;100.00;100155.69;5083157;28;20251;-70
2023/04/29 08:49:10;;;;;;;7.57;6.93;;;;;;;13.12;100.00;100156.63;5063986;28;20195;-70
2023/04/29 08:51:35;;;;;;;7.47;6.77;;;;;;;12.96;100.00;100159.38;5077789;28;20223;-71
2023/04/29 08:54:01;;;;;;;7.50;6.80;;;;;;;12.83;100.00;100169.63;5086123;28;20689;-70
2023/04/29 08:56:29;;;;;;;7.73;6.83;;;;;;;12.72;100.00;100172.06;5081446;28;20232;-70
2023/04/29 08:58:57;;;;;;;8.07;7.17;;;;;;;12.74;100.00;100170.22;5072729;28;20184;-71
2023/04/29 09:01:27;;;;;;;8.67;7.87;;;;;;;12.64;100.00;100171.69;5071529;28;20315;-71
2023/04/29 09:04:11;;;;;;;7.67;6.97;;;;;;;12.61;100.00;100177.06;5070041;28;20169;-71
2023/04/29 09:06:36;;;;;;;8.13;6.77;;;;;;;12.37;100.00;100175.88;5070818;28;20200;-70
2023/04/29 09:09:03;;;;;;;9.43;7.07;;;;;;;12.48;100.00;100167.50;5071714;28;20261;-70
2023/04/29 09:11:29;;;;;;;8.77;6.83;;;;;;;12.33;100.00;100184.75;5062548;28;20232;-71
2023/04/29 09:14:00;;;;;;;8.47;7.40;;;;;;;12.34;100.00;100182.97;5069875;28;20193;-70
2023/04/29 09:16:25;;;;;;;5.03;4.50;;;;;;;12.17;100.00;100189.16;5069576;28;20176;-70
2023/04/29 09:18:51;;;;;;;7.67;4.60;;;;;;;12.09;100.00;100190.47;5071582;28;20631;-70
2023/04/29 09:21:20;;;;;;;5.30;4.80;;;;;;;12.10;100.00;100196.44;5070418;28;20226;-71
2023/04/29 09:23:48;;;;;;;5.87;5.03;;;;;;;12.24;100.00;100195.59;5070169;28;20199;-71
2023/04/29 09:26:15;;;;;;;6.97;4.57;;;;;;;12.24;100.00;100203.34;5069015;28;20685;-69
2023/04/29 09:28:43;;;;;;;4.80;4.40;;;;;;;12.33;100.00;100205.38;5066487;28;20208;-69
2023/04/29 09:31:10;;;;;;;5.30;4.80;;;;;;;12.59;100.00;100206.38;5056355;28;20224;-70
2023/04/29 09:33:57;;;;;;;4.73;4.33;;;;;;;12.66;100.00;100206.81;5083043;28;20204;-70
2023/04/29 09:36:38;;;;;;;5.00;4.60;;;;;;;12.74;100.00;100206.34;5070484;28;20181;-70
2023/04/29 09:39:22;;;;;;;4.80;4.40;;;;;;;12.78;100.00;100207.00;5070843;28;20632;-70
2023/04/29 09:41:53;;;;;;;4.60;4.20;;;;;;;12.94;100.00;100205.09;5075708;28;20232;-69
2023/04/29 09:44:23;;;;;;;4.93;4.40;;;;;;;13.26;100.00;100204.81;5072409;28;20185;-70
2023/04/29 09:47:16;;;;;;;5.47;4.53;;;;;;;13.48;100.00;100211.22;5068962;28;20169;-70
2023/04/29 09:49:44;;;;;;;6.27;4.30;;;;;;;13.51;100.00;100208.44;5069600;28;20196;-70
2023/04/29 09:52:19;;;;;;;6.57;5.13;;;;;;;13.67;100.00;100205.69;5065249;28;20279;-70
2023/04/29 09:54:44;;;;;;;5.40;4.90;;;;;;;13.96;100.00;100216.66;5074335;28;20255;-71
2023/04/29 09:57:12;;;;;;;5.33;4.20;;;;;;;14.14;100.00;100211.16;5088382;28;20607;-71
2023/04/29 09:59:39;;;;;;;4.43;4.03;;;;;;;14.29;100.00;100215.31;5074912;28;20192;-71
2023/04/29 10:02:14;;;;;;;6.70;3.43;;;;;;;14.35;100.00;100212.31;5062701;28;20220;-71
2023/04/29 10:04:41;;;;;;;4.03;3.67;;;;;;;14.45;100.00;100212.50;5074389;28;20192;-71
2023/04/29 10:07:08;;;;;;;3.93;3.57;;;;;;;14.56;100.00;100214.31;5074635;28;20678;-71
2023/04/29 10:09:36;;;;;;;4.30;3.90;;;;;;;14.88;100.00;100223.41;5081226;28;20318;-70
2023/04/29 10:12:04;;;;;;;5.57;4.10;;;;;;;14.83;100.00;100227.16;5065564;28;20219;-70
2023/04/29 10:14:37;;;;;;;3.80;3.37;;;;;;;14.79;100.00;100217.94;5072081;28;20196;-70
2023/04/29 10:17:10;;;;;;;3.50;3.20;;;;;;;14.71;100.00;100216.81;5073391;28;20180;-71
2023/04/29 10:19:57;;;;;;;4.43;3.90;;;;;;;14.60;100.00;100215.78;5069583;28;20256;-70
2023/04/29 10:22:32;;;;;;;3.90;3.60;;;;;;;14.37;100.00;100214.78;5087869;28;20235;-70
2023/04/29 10:25:00;;;;;;;3.83;3.53;;;;;;;13.98;100.00;100217.38;5072420;28;20267;-71
2023/04/29 10:27:27;;;;;;;4.00;3.60;;;;;;;13.53;100.00;100227.25;5072997;28;20196;-71
2023/04/29 10:29:55;;;;;;;4.97;3.73;;;;;;;13.20;100.00;100223.31;5074342;28;20188;-72
2023/04/29 10:32:21;;;;;;;5.30;3.87;;;;;;;13.14;100.00;100231.44;5062976;28;20375;-70
2023/04/29 10:34:48;;;;;;;4.47;4.07;;;;;;;12.99;100.00;100226.28;5072207;28;20242;-70
2023/04/29 10:37:15;;;;;;;4.67;3.83;;;;;;;13.01;100.00;100226.19;5072567;28;20604;-72
2023/04/29 10:39:58;;;;;;;5.17;4.37;;;;;;;12.96;100.00;100234.25;5073994;28;20186;-70
2023/04/29 10:42:48;;;;;;;4.70;4.27;;;;;;;13.12;100.00;100235.84;5062529;28;20239;-71
2023/04/29 10:45:17;;;;;;;3.93;3.63;;;;;;;13.33;100.00;100239.66;5072776;28;20196;-71
2023/04/29 10:48:05;;;;;;;3.47;3.17;;;;;;;13.05;100.00;100238.81;5072224;28;20180;-69
2023/04/29 10:50:45;;;;;;;3.53;3.20;;;;;;;13.31;100.00;100235.50;5064818;28;20660;-70
2023/04/29 10:53:11;;;;;;;5.50;3.43;;;;;;;13.47;100.00;100235.38;5069113;28;20673;-69
2023/04/29 10:55:37;;;;;;;3.70;3.40;;;;;;;13.54;100.00;100236.66;5091495;28;20168;-70
2023/04/29 10:58:04;;;;;;;3.60;3.30;;;;;;;13.56;100.00;100234.81;5091890;28;20615;-71
2023/04/29 11:00:32;;;;;;;3.67;3.37;;;;;;;13.62;100.00;100241.31;5053270;28;20407;-70
2023/04/29 11:02:59;;;;;;;3.60;3.30;;;;;;;13.82;100.00;100237.44;5040109;28;20655;-70
2023/04/29 11:05:35;;;;;;;3.47;3.17;;;;;;;14.01;100.00;100230.09;5069549;28;20169;-71
2023/04/29 11:08:11;;;;;;;3.60;3.30;;;;;;;14.38;100.00;100231.16;5068113;28;20220;-70
2023/04/29 11:10:40;;;;;;;3.80;3.50;;;;;;;14.61;100.00;100226.97;5055014;28;20235;-71
2023/04/29 11:13:26;;;;;;;3.47;3.17;;;;;;;14.75;100.00;100226.88;5078140;28;20254;-69
2023/04/29 11:15:53;;;;;;;7.10;3.17;;;;;;;14.97;100.00;100228.78;5061126;28;20704;-70
2023/04/29 11:18:18;;;;;;;3.30;3.00;;;;;;;15.46;100.00;100226.16;5069148;28;20659;-70
2023/04/29 11:21:05;;;;;;;3.80;3.50;;;;;;;15.33;100.00;100226.22;5061544;28;20287;-71
2023/04/29 11:23:41;;;;;;;4.53;3.27;;;;;;;15.70;100.00;100227.88;5080645;28;20191;-70
2023/04/29 11:26:06;;;;;;;3.40;3.10;;;;;;;15.59;100.00;100226.09;5069491;28;20184;-70
2023/04/29 11:28:32;;;;;;;3.13;2.93;;;;;;;15.56;100.00;100227.13;5072947;28;20188;-69